sensor_id;sensor_type;location;lat;lon;timestamp;pressure;altitude;pressure_sealevel;temperature
76713;BMP280;65640;43.154;25.658;2023-06-24T00:01:23;100529.84;;;22.55
76713;BMP280;65640;43.154;25.658;2023-06-24T00:03:49;100526.34;;;22.51
76713;BMP280;65640;43.154;25.658;2023-06-24T00:06:21;100526.28;;;22.47
76713;BMP280;65640;43.154;25.658;2023-06-24T00:08:48;100528.38;;;22.38
76713;BMP280;65640;43.154;25.658;2023-06-24T00:11:14;100528.81;;;22.21
76713;BMP280;65640;43.154;25.658;2023-06-24T00:13:41;100529.28;;;22.07
76713;BMP280;65640;43.154;25.658;2023-06-24T00:16:07;100528.16;;;22.08
76713;BMP280;65640;43.154;25.658;2023-06-24T00:18:33;100525.88;;;22.10
76713;BMP280;65640;43.154;25.658;2023-06-24T00:20:59;100521.41;;;22.14
76713;BMP280;65640;43.154;25.658;2023-06-24T00:23:27;100522.63;;;22.17
76713;BMP280;65640;43.154;25.658;2023-06-24T00:25:53;100504.50;;;22.26
76713;BMP280;65640;43.154;25.658;2023-06-24T00:28:19;100508.81;;;22.30
76713;BMP280;65640;43.154;25.658;2023-06-24T00:30:46;100511.50;;;22.34
76713;BMP280;65640;43.154;25.658;2023-06-24T00:33:11;100502.38;;;22.35
76713;BMP280;65640;43.154;25.658;2023-06-24T00:35:39;100511.50;;;22.34
76713;BMP280;65640;43.154;25.658;2023-06-24T00:38:04;100508.72;;;22.27
76713;BMP280;65640;43.154;25.658;2023-06-24T00:40:29;100507.41;;;22.17
76713;BMP280;65640;43.154;25.658;2023-06-24T00:42:55;100505.41;;;22.14
76713;BMP280;65640;43.154;25.658;2023-06-24T00:45:22;100503.25;;;22.01
76713;BMP280;65640;43.154;25.658;2023-06-24T00:47:48;100508.19;;;21.83
76713;BMP280;65640;43.154;25.658;2023-06-24T00:50:15;100505.03;;;21.77
76713;BMP280;65640;43.154;25.658;2023-06-24T00:52:41;100498.13;;;21.76
76713;BMP280;65640;43.154;25.658;2023-06-24T00:55:12;100490.66;;;21.82
76713;BMP280;65640;43.154;25.658;2023-06-24T00:57:47;100491.41;;;21.82
76713;BMP280;65640;43.154;25.658;2023-06-24T01:00:17;100494.59;;;21.72
76713;BMP280;65640;43.154;25.658;2023-06-24T01:02:44;100497.72;;;21.74
76713;BMP280;65640;43.154;25.658;2023-06-24T01:05:10;100489.09;;;21.81
76713;BMP280;65640;43.154;25.658;2023-06-24T01:07:40;100489.72;;;21.74
76713;BMP280;65640;43.154;25.658;2023-06-24T01:10:06;100484.41;;;21.74
76713;BMP280;65640;43.154;25.658;2023-06-24T01:12:36;100480.47;;;21.53
76713;BMP280;65640;43.154;25.658;2023-06-24T01:15:09;100482.97;;;21.46
76713;BMP280;65640;43.154;25.658;2023-06-24T01:17:59;100494.06;;;21.32
76713;BMP280;65640;43.154;25.658;2023-06-24T01:20:34;100490.69;;;21.19
76713;BMP280;65640;43.154;25.658;2023-06-24T01:31:42;100480.91;;;21.39
76713;BMP280;65640;43.154;25.658;2023-06-24T01:36:40;100478.94;;;21.36
76713;BMP280;65640;43.154;25.658;2023-06-24T01:39:10;100474.72;;;21.19
76713;BMP280;65640;43.154;25.658;2023-06-24T01:41:43;100474.63;;;21.47
76713;BMP280;65640;43.154;25.658;2023-06-24T01:44:14;100472.06;;;21.35
76713;BMP280;65640;43.154;25.658;2023-06-24T01:46:42;100468.00;;;21.41
76713;BMP280;65640;43.154;25.658;2023-06-24T01:49:12;100462.84;;;21.48
76713;BMP280;65640;43.154;25.658;2023-06-24T01:51:39;100468.03;;;21.25
76713;BMP280;65640;43.154;25.658;2023-06-24T01:54:10;100476.03;;;21.10
76713;BMP280;65640;43.154;25.658;2023-06-24T01:56:37;100464.44;;;21.02
76713;BMP280;65640;43.154;25.658;2023-06-24T01:59:05;100477.19;;;20.97
76713;BMP280;65640;43.154;25.658;2023-06-24T02:01:35;100472.59;;;21.09
76713;BMP280;65640;43.154;25.658;2023-06-24T02:04:02;100476.81;;;21.10
76713;BMP280;65640;43.154;25.658;2023-06-24T02:06:28;100472.41;;;21.02
76713;BMP280;65640;43.154;25.658;2023-06-24T02:08:57;100476.97;;;21.02
76713;BMP280;65640;43.154;25.658;2023-06-24T02:11:25;100476.53;;;21.00
76713;BMP280;65640;43.154;25.658;2023-06-24T02:13:53;100480.59;;;20.94
76713;BMP280;65640;43.154;25.658;2023-06-24T02:16:20;100484.59;;;20.87
76713;BMP280;65640;43.154;25.658;2023-06-24T02:18:46;100490.69;;;20.88
76713;BMP280;65640;43.154;25.658;2023-06-24T02:21:16;100490.59;;;20.84
76713;BMP280;65640;43.154;25.658;2023-06-24T02:23:43;100501.78;;;21.06
76713;BMP280;65640;43.154;25.658;2023-06-24T02:26:09;100499.06;;;21.18
76713;BMP280;65640;43.154;25.658;2023-06-24T02:28:37;100502.28;;;21.27
76713;BMP280;65640;43.154;25.658;2023-06-24T02:31:03;100510.84;;;21.17
76713;BMP280;65640;43.154;25.658;2023-06-24T02:33:29;100517.78;;;21.06
76713;BMP280;65640;43.154;25.658;2023-06-24T02:35:55;100523.88;;;21.06
76713;BMP280;65640;43.154;25.658;2023-06-24T02:38:20;100523.66;;;20.99
76713;BMP280;65640;43.154;25.658;2023-06-24T02:40:46;100530.44;;;20.97
76713;BMP280;65640;43.154;25.658;2023-06-24T02:43:11;100530.28;;;20.89
76713;BMP280;65640;43.154;25.658;2023-06-24T02:45:38;100527.19;;;20.87
76713;BMP280;65640;43.154;25.658;2023-06-24T02:48:04;100542.47;;;20.90
76713;BMP280;65640;43.154;25.658;2023-06-24T02:50:31;100537.75;;;21.00
76713;BMP280;65640;43.154;25.658;2023-06-24T02:52:58;100526.47;;;21.18
76713;BMP280;65640;43.154;25.658;2023-06-24T02:55:23;100535.19;;;21.19
76713;BMP280;65640;43.154;25.658;2023-06-24T02:57:49;100532.22;;;21.36
76713;BMP280;65640;43.154;25.658;2023-06-24T03:00:16;100530.16;;;21.45
76713;BMP280;65640;43.154;25.658;2023-06-24T03:02:43;100533.00;;;21.36
76713;BMP280;65640;43.154;25.658;2023-06-24T03:05:10;100541.22;;;21.16
76713;BMP280;65640;43.154;25.658;2023-06-24T03:07:37;100540.09;;;21.01
76713;BMP280;65640;43.154;25.658;2023-06-24T03:10:03;100538.28;;;21.05
76713;BMP280;65640;43.154;25.658;2023-06-24T03:12:31;100532.00;;;20.98
76713;BMP280;65640;43.154;25.658;2023-06-24T03:14:56;100543.16;;;20.87
76713;BMP280;65640;43.154;25.658;2023-06-24T03:17:22;100553.59;;;20.80
76713;BMP280;65640;43.154;25.658;2023-06-24T03:19:47;100545.56;;;20.92
76713;BMP280;65640;43.154;25.658;2023-06-24T03:22:13;100549.03;;;21.09
76713;BMP280;65640;43.154;25.658;2023-06-24T03:24:38;100555.91;;;21.10
76713;BMP280;65640;43.154;25.658;2023-06-24T03:27:03;100563.81;;;21.22
76713;BMP280;65640;43.154;25.658;2023-06-24T03:29:29;100560.41;;;21.37
76713;BMP280;65640;43.154;25.658;2023-06-24T03:31:54;100568.41;;;21.53
76713;BMP280;65640;43.154;25.658;2023-06-24T03:34:20;100560.50;;;21.56
76713;BMP280;65640;43.154;25.658;2023-06-24T03:36:46;100564.19;;;21.52
76713;BMP280;65640;43.154;25.658;2023-06-24T03:39:11;100558.59;;;21.41
76713;BMP280;65640;43.154;25.658;2023-06-24T03:41:37;100568.31;;;21.33
76713;BMP280;65640;43.154;25.658;2023-06-24T03:44:02;100562.63;;;21.35
76713;BMP280;65640;43.154;25.658;2023-06-24T03:46:28;100560.31;;;21.49
76713;BMP280;65640;43.154;25.658;2023-06-24T03:48:58;100559.22;;;21.50
76713;BMP280;65640;43.154;25.658;2023-06-24T03:51:23;100561.28;;;21.57
76713;BMP280;65640;43.154;25.658;2023-06-24T03:53:49;100568.72;;;21.82
76713;BMP280;65640;43.154;25.658;2023-06-24T03:56:15;100559.31;;;21.88
76713;BMP280;65640;43.154;25.658;2023-06-24T03:58:40;100567.94;;;21.98
76713;BMP280;65640;43.154;25.658;2023-06-24T04:01:06;100567.41;;;22.08
76713;BMP280;65640;43.154;25.658;2023-06-24T04:03:31;100569.69;;;22.09
76713;BMP280;65640;43.154;25.658;2023-06-24T04:05:57;100571.19;;;22.07
76713;BMP280;65640;43.154;25.658;2023-06-24T04:08:23;100571.81;;;22.19
76713;BMP280;65640;43.154;25.658;2023-06-24T04:10:55;100572.84;;;22.15
76713;BMP280;65640;43.154;25.658;2023-06-24T04:13:20;100580.38;;;22.09
76713;BMP280;65640;43.154;25.658;2023-06-24T04:15:45;100578.13;;;22.11
76713;BMP280;65640;43.154;25.658;2023-06-24T04:18:11;100577.69;;;22.25
76713;BMP280;65640;43.154;25.658;2023-06-24T04:20:36;100580.53;;;22.35
76713;BMP280;65640;43.154;25.658;2023-06-24T04:23:03;100578.09;;;22.46
76713;BMP280;65640;43.154;25.658;2023-06-24T04:25:28;100577.84;;;22.70
76713;BMP280;65640;43.154;25.658;2023-06-24T04:27:53;100580.19;;;22.94
76713;BMP280;65640;43.154;25.658;2023-06-24T04:30:19;100581.84;;;23.25
76713;BMP280;65640;43.154;25.658;2023-06-24T04:32:44;100579.03;;;23.37
76713;BMP280;65640;43.154;25.658;2023-06-24T04:35:09;100584.25;;;23.57
76713;BMP280;65640;43.154;25.658;2023-06-24T04:37:35;100595.66;;;23.76
76713;BMP280;65640;43.154;25.658;2023-06-24T04:40:00;100595.88;;;23.94
76713;BMP280;65640;43.154;25.658;2023-06-24T04:42:26;100589.56;;;24.05
76713;BMP280;65640;43.154;25.658;2023-06-24T04:44:51;100589.38;;;24.21
76713;BMP280;65640;43.154;25.658;2023-06-24T04:47:17;100592.69;;;24.41
76713;BMP280;65640;43.154;25.658;2023-06-24T04:49:43;100595.59;;;24.62
76713;BMP280;65640;43.154;25.658;2023-06-24T04:52:10;100586.19;;;24.79
76713;BMP280;65640;43.154;25.658;2023-06-24T04:54:36;100581.50;;;25.09
76713;BMP280;65640;43.154;25.658;2023-06-24T04:57:01;100585.94;;;25.35
76713;BMP280;65640;43.154;25.658;2023-06-24T04:59:27;100592.16;;;25.53
76713;BMP280;65640;43.154;25.658;2023-06-24T05:01:52;100586.84;;;25.56
76713;BMP280;65640;43.154;25.658;2023-06-24T05:04:18;100583.44;;;25.63
76713;BMP280;65640;43.154;25.658;2023-06-24T05:06:43;100587.75;;;25.82
76713;BMP280;65640;43.154;25.658;2023-06-24T05:09:09;100585.53;;;25.98
76713;BMP280;65640;43.154;25.658;2023-06-24T05:11:38;100579.47;;;26.18
76713;BMP280;65640;43.154;25.658;2023-06-24T05:14:04;100574.13;;;26.22
76713;BMP280;65640;43.154;25.658;2023-06-24T05:16:29;100575.69;;;26.26
76713;BMP280;65640;43.154;25.658;2023-06-24T05:18:54;100574.91;;;26.26
76713;BMP280;65640;43.154;25.658;2023-06-24T05:21:20;100580.31;;;26.47
76713;BMP280;65640;43.154;25.658;2023-06-24T05:23:45;100574.19;;;26.61
76713;BMP280;65640;43.154;25.658;2023-06-24T05:26:10;100567.72;;;26.72
76713;BMP280;65640;43.154;25.658;2023-06-24T05:28:36;100563.47;;;26.89
76713;BMP280;65640;43.154;25.658;2023-06-24T05:31:01;100568.47;;;26.66
76713;BMP280;65640;43.154;25.658;2023-06-24T05:33:27;100576.50;;;26.59
76713;BMP280;65640;43.154;25.658;2023-06-24T05:35:52;100571.16;;;26.80
76713;BMP280;65640;43.154;25.658;2023-06-24T05:38:17;100576.53;;;26.87
76713;BMP280;65640;43.154;25.658;2023-06-24T05:40:43;100581.53;;;26.99
76713;BMP280;65640;43.154;25.658;2023-06-24T05:43:10;100573.47;;;27.06
76713;BMP280;65640;43.154;25.658;2023-06-24T05:45:36;100568.88;;;27.10
76713;BMP280;65640;43.154;25.658;2023-06-24T05:48:02;100563.81;;;27.33
76713;BMP280;65640;43.154;25.658;2023-06-24T05:50:27;100562.69;;;27.41
76713;BMP280;65640;43.154;25.658;2023-06-24T05:52:53;100568.06;;;27.34
76713;BMP280;65640;43.154;25.658;2023-06-24T05:55:18;100568.81;;;27.38
76713;BMP280;65640;43.154;25.658;2023-06-24T05:57:43;100573.38;;;27.66
76713;BMP280;65640;43.154;25.658;2023-06-24T06:00:09;100563.28;;;27.84
76713;BMP280;65640;43.154;25.658;2023-06-24T06:02:35;100561.28;;;27.95
76713;BMP280;65640;43.154;25.658;2023-06-24T06:05:00;100564.72;;;28.10
76713;BMP280;65640;43.154;25.658;2023-06-24T06:07:26;100556.97;;;28.19
76713;BMP280;65640;43.154;25.658;2023-06-24T06:09:51;100555.31;;;28.36
76713;BMP280;65640;43.154;25.658;2023-06-24T06:12:17;100552.22;;;28.37
76713;BMP280;65640;43.154;25.658;2023-06-24T06:14:42;100560.22;;;28.48
76713;BMP280;65640;43.154;25.658;2023-06-24T06:17:08;100560.16;;;28.58
76713;BMP280;65640;43.154;25.658;2023-06-24T06:19:33;100556.56;;;28.76
76713;BMP280;65640;43.154;25.658;2023-06-24T06:21:58;100560.41;;;28.78
76713;BMP280;65640;43.154;25.658;2023-06-24T06:24:24;100555.78;;;28.75
76713;BMP280;65640;43.154;25.658;2023-06-24T06:26:49;100561.13;;;28.82
76713;BMP280;65640;43.154;25.658;2023-06-24T06:29:14;100559.19;;;29.23
76713;BMP280;65640;43.154;25.658;2023-06-24T06:31:40;100555.22;;;29.31
76713;BMP280;65640;43.154;25.658;2023-06-24T06:34:05;100564.00;;;29.39
76713;BMP280;65640;43.154;25.658;2023-06-24T06:36:31;100566.59;;;29.50
76713;BMP280;65640;43.154;25.658;2023-06-24T06:38:56;100566.19;;;29.51
76713;BMP280;65640;43.154;25.658;2023-06-24T06:41:22;100571.38;;;29.35
76713;BMP280;65640;43.154;25.658;2023-06-24T06:43:53;100562.09;;;29.40
76713;BMP280;65640;43.154;25.658;2023-06-24T06:46:19;100566.47;;;29.60
76713;BMP280;65640;43.154;25.658;2023-06-24T06:48:44;100566.56;;;29.83
76713;BMP280;65640;43.154;25.658;2023-06-24T06:51:10;100568.97;;;29.74
76713;BMP280;65640;43.154;25.658;2023-06-24T06:53:35;100571.75;;;29.71
76713;BMP280;65640;43.154;25.658;2023-06-24T06:56:00;100559.34;;;29.73
76713;BMP280;65640;43.154;25.658;2023-06-24T06:58:26;100559.41;;;29.96
76713;BMP280;65640;43.154;25.658;2023-06-24T07:00:51;100554.41;;;30.22
76713;BMP280;65640;43.154;25.658;2023-06-24T07:03:17;100552.81;;;30.51
76713;BMP280;65640;43.154;25.658;2023-06-24T07:05:42;100551.50;;;30.82
76713;BMP280;65640;43.154;25.658;2023-06-24T07:08:07;100556.38;;;30.67
76713;BMP280;65640;43.154;25.658;2023-06-24T07:10:33;100557.41;;;30.77
76713;BMP280;65640;43.154;25.658;2023-06-24T07:12:58;100555.88;;;30.96
76713;BMP280;65640;43.154;25.658;2023-06-24T07:15:27;100549.94;;;31.24
76713;BMP280;65640;43.154;25.658;2023-06-24T07:17:52;100551.22;;;31.36
76713;BMP280;65640;43.154;25.658;2023-06-24T07:20:21;100541.75;;;31.63
76713;BMP280;65640;43.154;25.658;2023-06-24T07:22:47;100545.28;;;32.12
76713;BMP280;65640;43.154;25.658;2023-06-24T07:25:13;100547.28;;;32.40
76713;BMP280;65640;43.154;25.658;2023-06-24T07:27:38;100544.13;;;32.42
76713;BMP280;65640;43.154;25.658;2023-06-24T07:30:05;100537.41;;;32.62
76713;BMP280;65640;43.154;25.658;2023-06-24T07:32:30;100537.41;;;32.91
76713;BMP280;65640;43.154;25.658;2023-06-24T07:34:56;100551.88;;;33.01
76713;BMP280;65640;43.154;25.658;2023-06-24T07:37:22;100540.16;;;33.04
76713;BMP280;65640;43.154;25.658;2023-06-24T07:39:47;100540.16;;;33.04
76713;BMP280;65640;43.154;25.658;2023-06-24T07:42:12;100539.88;;;33.27
76713;BMP280;65640;43.154;25.658;2023-06-24T07:44:46;100536.91;;;33.34
76713;BMP280;65640;43.154;25.658;2023-06-24T07:47:12;100539.97;;;33.36
76713;BMP280;65640;43.154;25.658;2023-06-24T07:49:38;100535.63;;;33.38
76713;BMP280;65640;43.154;25.658;2023-06-24T07:52:03;100536.94;;;33.59
76713;BMP280;65640;43.154;25.658;2023-06-24T07:54:30;100537.03;;;33.56
76713;BMP280;65640;43.154;25.658;2023-06-24T07:56:55;100534.41;;;33.14
76713;BMP280;65640;43.154;25.658;2023-06-24T07:59:21;100543.69;;;33.29
76713;BMP280;65640;43.154;25.658;2023-06-24T08:01:47;100538.47;;;33.48
76713;BMP280;65640;43.154;25.658;2023-06-24T08:04:12;100544.97;;;33.88
76713;BMP280;65640;43.154;25.658;2023-06-24T08:06:37;100543.56;;;33.96
76713;BMP280;65640;43.154;25.658;2023-06-24T08:09:03;100543.19;;;34.06
76713;BMP280;65640;43.154;25.658;2023-06-24T08:11:28;100543.75;;;34.36
76713;BMP280;65640;43.154;25.658;2023-06-24T08:13:54;100542.91;;;34.39
76713;BMP280;65640;43.154;25.658;2023-06-24T08:16:19;100541.13;;;34.66
76713;BMP280;65640;43.154;25.658;2023-06-24T08:18:46;100540.34;;;34.66
76713;BMP280;65640;43.154;25.658;2023-06-24T08:21:11;100541.97;;;34.20
76713;BMP280;65640;43.154;25.658;2023-06-24T08:23:37;100542.66;;;34.12
76713;BMP280;65640;43.154;25.658;2023-06-24T08:26:02;100544.31;;;34.31
76713;BMP280;65640;43.154;25.658;2023-06-24T08:28:28;100537.63;;;34.66
76713;BMP280;65640;43.154;25.658;2023-06-24T08:30:53;100537.59;;;34.78
76713;BMP280;65640;43.154;25.658;2023-06-24T08:33:18;100540.94;;;34.82
76713;BMP280;65640;43.154;25.658;2023-06-24T08:35:44;100535.59;;;34.79
76713;BMP280;65640;43.154;25.658;2023-06-24T08:38:09;100530.84;;;34.92
76713;BMP280;65640;43.154;25.658;2023-06-24T08:40:35;100530.84;;;34.70
76713;BMP280;65640;43.154;25.658;2023-06-24T08:43:01;100529.94;;;34.95
76713;BMP280;65640;43.154;25.658;2023-06-24T08:45:27;100535.47;;;35.13
76713;BMP280;65640;43.154;25.658;2023-06-24T08:47:52;100530.84;;;34.92
76713;BMP280;65640;43.154;25.658;2023-06-24T08:50:18;100536.25;;;35.14
76713;BMP280;65640;43.154;25.658;2023-06-24T08:52:51;100524.09;;;34.75
76713;BMP280;65640;43.154;25.658;2023-06-24T08:55:22;100540.31;;;34.23
76713;BMP280;65640;43.154;25.658;2023-06-24T08:57:48;100538.78;;;34.22
76713;BMP280;65640;43.154;25.658;2023-06-24T09:00:14;100538.06;;;34.43
76713;BMP280;65640;43.154;25.658;2023-06-24T09:02:39;100535.69;;;34.66
76713;BMP280;65640;43.154;25.658;2023-06-24T09:05:06;100531.38;;;34.78
76713;BMP280;65640;43.154;25.658;2023-06-24T09:07:31;100529.84;;;34.77
76713;BMP280;65640;43.154;25.658;2023-06-24T09:09:57;100534.66;;;34.73
76713;BMP280;65640;43.154;25.658;2023-06-24T09:12:24;100536.41;;;34.67
76713;BMP280;65640;43.154;25.658;2023-06-24T09:14:51;100531.25;;;34.60
76713;BMP280;65640;43.154;25.658;2023-06-24T09:17:18;100524.44;;;34.43
76713;BMP280;65640;43.154;25.658;2023-06-24T09:19:43;100522.69;;;34.70
76713;BMP280;65640;43.154;25.658;2023-06-24T09:22:10;100525.69;;;34.85
76713;BMP280;65640;43.154;25.658;2023-06-24T09:24:43;100523.75;;;34.95
76713;BMP280;65640;43.154;25.658;2023-06-24T09:27:13;100518.53;;;35.09
76713;BMP280;65640;43.154;25.658;2023-06-24T09:29:40;100517.31;;;35.10
76713;BMP280;65640;43.154;25.658;2023-06-24T09:32:06;100526.72;;;35.18
76713;BMP280;65640;43.154;25.658;2023-06-24T09:34:32;100519.59;;;35.12
76713;BMP280;65640;43.154;25.658;2023-06-24T09:36:58;100517.91;;;35.05
76713;BMP280;65640;43.154;25.658;2023-06-24T09:39:26;100516.50;;;35.31
76713;BMP280;65640;43.154;25.658;2023-06-24T09:41:56;100513.91;;;35.77
76713;BMP280;65640;43.154;25.658;2023-06-24T09:44:22;100511.47;;;36.06
76713;BMP280;65640;43.154;25.658;2023-06-24T09:46:47;100514.47;;;36.44
76713;BMP280;65640;43.154;25.658;2023-06-24T09:49:13;100506.88;;;36.57
76713;BMP280;65640;43.154;25.658;2023-06-24T09:51:42;100509.03;;;36.26
76713;BMP280;65640;43.154;25.658;2023-06-24T09:54:09;100505.44;;;36.11
76713;BMP280;65640;43.154;25.658;2023-06-24T09:56:36;100499.22;;;36.19
76713;BMP280;65640;43.154;25.658;2023-06-24T09:59:05;100498.28;;;36.41
76713;BMP280;65640;43.154;25.658;2023-06-24T10:01:32;100495.38;;;36.35
76713;BMP280;65640;43.154;25.658;2023-06-24T10:03:58;100486.56;;;36.49
76713;BMP280;65640;43.154;25.658;2023-06-24T10:06:25;100473.84;;;36.37
76713;BMP280;65640;43.154;25.658;2023-06-24T10:08:51;100477.16;;;36.50
76713;BMP280;65640;43.154;25.658;2023-06-24T10:11:17;100472.97;;;36.31
76713;BMP280;65640;43.154;25.658;2023-06-24T10:13:42;100472.00;;;36.61
76713;BMP280;65640;43.154;25.658;2023-06-24T10:16:08;100463.31;;;36.72
76713;BMP280;65640;43.154;25.658;2023-06-24T10:18:38;100464.28;;;36.51
76713;BMP280;65640;43.154;25.658;2023-06-24T10:21:05;100461.38;;;36.54
76713;BMP280;65640;43.154;25.658;2023-06-24T10:23:54;100460.97;;;36.37
76713;BMP280;65640;43.154;25.658;2023-06-24T10:26:27;100453.50;;;36.47
76713;BMP280;65640;43.154;25.658;2023-06-24T10:37:24;100453.66;;;36.53
76713;BMP280;65640;43.154;25.658;2023-06-24T10:39:56;100468.72;;;36.39
76713;BMP280;65640;43.154;25.658;2023-06-24T10:42:32;100463.25;;;36.30
76713;BMP280;65640;43.154;25.658;2023-06-24T10:47:43;100447.50;;;36.34
76713;BMP280;65640;43.154;25.658;2023-06-24T10:50:13;100449.28;;;36.37
76713;BMP280;65640;43.154;25.658;2023-06-24T10:52:44;100450.34;;;36.49
76713;BMP280;65640;43.154;25.658;2023-06-24T10:55:11;100441.13;;;36.28
76713;BMP280;65640;43.154;25.658;2023-06-24T10:57:38;100439.03;;;36.32
76713;BMP280;65640;43.154;25.658;2023-06-24T11:00:04;100441.56;;;36.35
76713;BMP280;65640;43.154;25.658;2023-06-24T11:02:29;100438.25;;;36.31
76713;BMP280;65640;43.154;25.658;2023-06-24T11:04:56;100427.47;;;36.37
76713;BMP280;65640;43.154;25.658;2023-06-24T11:07:30;100436.13;;;36.35
76713;BMP280;65640;43.154;25.658;2023-06-24T11:10:00;100429.88;;;36.53
76713;BMP280;65640;43.154;25.658;2023-06-24T11:12:29;100432.56;;;36.62
76713;BMP280;65640;43.154;25.658;2023-06-24T11:14:59;100432.41;;;35.97
76713;BMP280;65640;43.154;25.658;2023-06-24T11:17:26;100430.44;;;36.06
76713;BMP280;65640;43.154;25.658;2023-06-24T11:19:55;100428.09;;;36.23
76713;BMP280;65640;43.154;25.658;2023-06-24T11:22:21;100429.06;;;36.20
76713;BMP280;65640;43.154;25.658;2023-06-24T11:24:47;100430.88;;;35.87
76713;BMP280;65640;43.154;25.658;2023-06-24T11:27:12;100424.63;;;36.31
76713;BMP280;65640;43.154;25.658;2023-06-24T11:29:38;100427.44;;;36.46
76713;BMP280;65640;43.154;25.658;2023-06-24T11:32:07;100422.09;;;36.61
76713;BMP280;65640;43.154;25.658;2023-06-24T11:34:33;100426.56;;;36.82
76713;BMP280;65640;43.154;25.658;2023-06-24T11:36:58;100413.56;;;36.68
76713;BMP280;65640;43.154;25.658;2023-06-24T11:39:25;100420.41;;;36.63
76713;BMP280;65640;43.154;25.658;2023-06-24T11:41:52;100415.59;;;36.49
76713;BMP280;65640;43.154;25.658;2023-06-24T11:44:21;100410.06;;;36.76
76713;BMP280;65640;43.154;25.658;2023-06-24T11:46:48;100404.03;;;37.19
76713;BMP280;65640;43.154;25.658;2023-06-24T11:49:14;100389.38;;;37.32
76713;BMP280;65640;43.154;25.658;2023-06-24T11:51:48;100389.03;;;37.15
76713;BMP280;65640;43.154;25.658;2023-06-24T11:54:15;100399.69;;;36.48
76713;BMP280;65640;43.154;25.658;2023-06-24T11:56:42;100394.41;;;36.44
76713;BMP280;65640;43.154;25.658;2023-06-24T11:59:22;100388.09;;;36.94
76713;BMP280;65640;43.154;25.658;2023-06-24T12:01:58;100393.94;;;37.49
76713;BMP280;65640;43.154;25.658;2023-06-24T12:04:30;100384.47;;;37.12
76713;BMP280;65640;43.154;25.658;2023-06-24T12:06:56;100384.47;;;37.36
76713;BMP280;65640;43.154;25.658;2023-06-24T12:09:22;100381.38;;;37.57
76713;BMP280;65640;43.154;25.658;2023-06-24T12:11:47;100375.28;;;37.62
76713;BMP280;65640;43.154;25.658;2023-06-24T12:14:12;100375.00;;;37.60
76713;BMP280;65640;43.154;25.658;2023-06-24T12:16:39;100367.88;;;37.39
76713;BMP280;65640;43.154;25.658;2023-06-24T12:19:06;100365.81;;;37.34
76713;BMP280;65640;43.154;25.658;2023-06-24T12:21:31;100364.72;;;36.93
76713;BMP280;65640;43.154;25.658;2023-06-24T12:23:57;100368.66;;;36.69
76713;BMP280;65640;43.154;25.658;2023-06-24T12:26:22;100371.09;;;36.99
76713;BMP280;65640;43.154;25.658;2023-06-24T12:28:48;100373.44;;;37.30
76713;BMP280;65640;43.154;25.658;2023-06-24T12:31:13;100365.66;;;36.90
76713;BMP280;65640;43.154;25.658;2023-06-24T12:33:39;100353.34;;;36.71
76713;BMP280;65640;43.154;25.658;2023-06-24T12:36:04;100354.63;;;36.85
76713;BMP280;65640;43.154;25.658;2023-06-24T12:38:30;100350.72;;;37.24
76713;BMP280;65640;43.154;25.658;2023-06-24T12:40:57;100362.19;;;37.52
76713;BMP280;65640;43.154;25.658;2023-06-24T12:43:22;100364.09;;;37.37
76713;BMP280;65640;43.154;25.658;2023-06-24T12:45:48;100352.81;;;37.05
76713;BMP280;65640;43.154;25.658;2023-06-24T12:48:13;100352.00;;;36.90
76713;BMP280;65640;43.154;25.658;2023-06-24T12:50:39;100359.00;;;37.30
76713;BMP280;65640;43.154;25.658;2023-06-24T12:53:05;100357.13;;;37.36
76713;BMP280;65640;43.154;25.658;2023-06-24T12:55:31;100359.97;;;36.79
76713;BMP280;65640;43.154;25.658;2023-06-24T12:57:56;100351.91;;;37.08
76713;BMP280;65640;43.154;25.658;2023-06-24T13:00:23;100357.59;;;37.72
76713;BMP280;65640;43.154;25.658;2023-06-24T13:02:50;100365.88;;;37.78
76713;BMP280;65640;43.154;25.658;2023-06-24T13:05:16;100357.47;;;38.11
76713;BMP280;65640;43.154;25.658;2023-06-24T13:07:42;100356.88;;;38.21
76713;BMP280;65640;43.154;25.658;2023-06-24T13:10:08;100345.34;;;38.52
76713;BMP280;65640;43.154;25.658;2023-06-24T13:12:35;100347.06;;;38.49
76713;BMP280;65640;43.154;25.658;2023-06-24T13:15:00;100341.69;;;38.20
76713;BMP280;65640;43.154;25.658;2023-06-24T13:17:26;100340.28;;;38.10
76713;BMP280;65640;43.154;25.658;2023-06-24T13:19:52;100336.19;;;38.20
76713;BMP280;65640;43.154;25.658;2023-06-24T13:22:18;100337.66;;;38.01
76713;BMP280;65640;43.154;25.658;2023-06-24T13:24:44;100337.84;;;37.68
76713;BMP280;65640;43.154;25.658;2023-06-24T13:27:09;100331.16;;;37.69
76713;BMP280;65640;43.154;25.658;2023-06-24T13:29:35;100327.94;;;38.00
76713;BMP280;65640;43.154;25.658;2023-06-24T13:32:00;100329.22;;;38.19
76713;BMP280;65640;43.154;25.658;2023-06-24T13:34:26;100322.56;;;37.91
76713;BMP280;65640;43.154;25.658;2023-06-24T13:36:51;100317.94;;;37.82
76713;BMP280;65640;43.154;25.658;2023-06-24T13:39:16;100314.63;;;38.08
76713;BMP280;65640;43.154;25.658;2023-06-24T13:41:43;100317.53;;;38.19
76713;BMP280;65640;43.154;25.658;2023-06-24T13:44:09;100321.72;;;37.85
76713;BMP280;65640;43.154;25.658;2023-06-24T13:46:35;100317.78;;;37.71
76713;BMP280;65640;43.154;25.658;2023-06-24T13:49:00;100324.25;;;37.45
76713;BMP280;65640;43.154;25.658;2023-06-24T13:51:26;100327.44;;;36.90
76713;BMP280;65640;43.154;25.658;2023-06-24T13:53:52;100315.63;;;37.08
76713;BMP280;65640;43.154;25.658;2023-06-24T13:56:20;100316.06;;;36.35
76713;BMP280;65640;43.154;25.658;2023-06-24T13:58:46;100300.22;;;36.72
76713;BMP280;65640;43.154;25.658;2023-06-24T14:01:11;100312.25;;;37.13
76713;BMP280;65640;43.154;25.658;2023-06-24T14:03:37;100314.63;;;37.20